Boswell, Arkansas
Current Conditions -  °F | °C
As of 1:55 AM on Monday 24 Nov 2014 (Local Time) from KBVX Reporting Station
Overcast Overcast  
Wind Chill: 50°   Ceiling: 3600
Heat Index: 50°   Visibility: 10mi
Dew Point: 43°   Wind: 15mph
Humidity: 76%   Direction: 270°W
Pressure: 29.48"   Gusts: 30mph
Location:  36.04°N, 92.06°W
Report Text: KBVX 240755Z AUTO 27013G26KT 10SM BKN036 OVC050 10/06 A2948 RMK AO1
Loading
Personal Weather Stations






























Interactive Weather Map New forecast layout! Learn more

10-Day Weather Forecast

Advertisements
Track Severe Weather on mobile